sensor_id;sensor_type;location;lat;lon;timestamp;P1;durP1;ratioP1;P2;durP2;ratioP2
65871;SDS011;52653;50.080;21.992;2023-05-14T00:00:00;49.30;;;35.60;;
65871;SDS011;52653;50.080;21.992;2023-05-14T00:02:54;46.80;;;35.40;;
65871;SDS011;52653;50.080;21.992;2023-05-14T00:05:27;42.40;;;34.30;;
65871;SDS011;52653;50.080;21.992;2023-05-14T00:08:00;44.80;;;36.20;;
65871;SDS011;52653;50.080;21.992;2023-05-14T00:10:42;45.00;;;34.40;;
65871;SDS011;52653;50.080;21.992;2023-05-14T00:13:18;41.00;;;34.10;;
65871;SDS011;52653;50.080;21.992;2023-05-14T00:15:53;42.40;;;34.40;;
65871;SDS011;52653;50.080;21.992;2023-05-14T00:18:32;47.40;;;34.10;;
65871;SDS011;52653;50.080;21.992;2023-05-14T00:21:05;45.40;;;33.90;;
65871;SDS011;52653;50.080;21.992;2023-05-14T00:23:58;43.90;;;33.50;;
65871;SDS011;52653;50.080;21.992;2023-05-14T00:26:43;40.60;;;33.20;;
65871;SDS011;52653;50.080;21.992;2023-05-14T00:29:15;44.70;;;34.10;;
65871;SDS011;52653;50.080;21.992;2023-05-14T00:31:48;39.40;;;31.50;;
65871;SDS011;52653;50.080;21.992;2023-05-14T00:34:24;42.70;;;32.90;;
65871;SDS011;52653;50.080;21.992;2023-05-14T00:37:17;40.20;;;32.40;;
65871;SDS011;52653;50.080;21.992;2023-05-14T00:40:00;44.00;;;34.80;;
65871;SDS011;52653;50.080;21.992;2023-05-14T00:42:39;42.40;;;33.30;;
65871;SDS011;52653;50.080;21.992;2023-05-14T00:45:22;42.20;;;32.20;;
65871;SDS011;52653;50.080;21.992;2023-05-14T00:47:58;40.20;;;32.40;;
65871;SDS011;52653;50.080;21.992;2023-05-14T00:50:33;40.00;;;32.20;;
65871;SDS011;52653;50.080;21.992;2023-05-14T00:53:10;43.40;;;34.10;;
65871;SDS011;52653;50.080;21.992;2023-05-14T00:55:54;41.60;;;33.30;;
65871;SDS011;52653;50.080;21.992;2023-05-14T00:58:29;41.50;;;33.20;;
65871;SDS011;52653;50.080;21.992;2023-05-14T01:01:15;40.10;;;32.60;;
65871;SDS011;52653;50.080;21.992;2023-05-14T01:03:50;44.00;;;34.30;;
65871;SDS011;52653;50.080;21.992;2023-05-14T01:06:48;44.40;;;35.40;;
65871;SDS011;52653;50.080;21.992;2023-05-14T01:09:41;44.50;;;34.50;;
65871;SDS011;52653;50.080;21.992;2023-05-14T01:12:43;44.70;;;35.20;;
65871;SDS011;52653;50.080;21.992;2023-05-14T01:15:34;44.80;;;36.60;;
65871;SDS011;52653;50.080;21.992;2023-05-14T01:18:12;53.30;;;38.60;;
65871;SDS011;52653;50.080;21.992;2023-05-14T01:20:53;48.90;;;37.30;;
65871;SDS011;52653;50.080;21.992;2023-05-14T01:23:28;48.20;;;36.20;;
65871;SDS011;52653;50.080;21.992;2023-05-14T01:26:14;45.60;;;35.60;;
65871;SDS011;52653;50.080;21.992;2023-05-14T01:29:00;49.00;;;36.20;;
65871;SDS011;52653;50.080;21.992;2023-05-14T01:31:41;48.10;;;36.60;;
65871;SDS011;52653;50.080;21.992;2023-05-14T01:34:19;50.80;;;37.10;;
65871;SDS011;52653;50.080;21.992;2023-05-14T01:37:05;50.80;;;37.40;;
65871;SDS011;52653;50.080;21.992;2023-05-14T01:39:52;52.80;;;38.60;;
65871;SDS011;52653;50.080;21.992;2023-05-14T01:42:34;45.70;;;35.40;;
65871;SDS011;52653;50.080;21.992;2023-05-14T01:45:28;51.40;;;37.50;;
65871;SDS011;52653;50.080;21.992;2023-05-14T01:48:22;50.30;;;37.50;;
65871;SDS011;52653;50.080;21.992;2023-05-14T01:50:54;49.60;;;36.90;;
65871;SDS011;52653;50.080;21.992;2023-05-14T01:53:37;47.60;;;36.00;;
65871;SDS011;52653;50.080;21.992;2023-05-14T01:56:13;47.70;;;36.80;;
65871;SDS011;52653;50.080;21.992;2023-05-14T01:59:06;50.00;;;37.40;;
65871;SDS011;52653;50.080;21.992;2023-05-14T02:02:01;46.00;;;34.80;;
65871;SDS011;52653;50.080;21.992;2023-05-14T02:04:54;46.20;;;33.70;;
65871;SDS011;52653;50.080;21.992;2023-05-14T02:07:47;45.80;;;35.30;;
65871;SDS011;52653;50.080;21.992;2023-05-14T02:10:40;47.20;;;34.80;;
65871;SDS011;52653;50.080;21.992;2023-05-14T02:13:34;46.70;;;34.60;;
65871;SDS011;52653;50.080;21.992;2023-05-14T02:16:19;48.90;;;35.50;;
65871;SDS011;52653;50.080;21.992;2023-05-14T02:19:10;40.70;;;32.70;;
65871;SDS011;52653;50.080;21.992;2023-05-14T02:22:03;43.40;;;32.90;;
65871;SDS011;52653;50.080;21.992;2023-05-14T02:24:47;44.80;;;33.90;;
65871;SDS011;52653;50.080;21.992;2023-05-14T02:27:40;41.40;;;33.40;;
65871;SDS011;52653;50.080;21.992;2023-05-14T02:30:35;44.80;;;33.30;;
65871;SDS011;52653;50.080;21.992;2023-05-14T02:33:28;44.30;;;34.50;;
65871;SDS011;52653;50.080;21.992;2023-05-14T02:36:20;44.50;;;34.00;;
65871;SDS011;52653;50.080;21.992;2023-05-14T02:39:05;47.80;;;35.00;;
65871;SDS011;52653;50.080;21.992;2023-05-14T02:41:58;47.90;;;34.40;;
65871;SDS011;52653;50.080;21.992;2023-05-14T02:44:51;47.20;;;32.80;;
65871;SDS011;52653;50.080;21.992;2023-05-14T02:47:44;42.20;;;33.90;;
65871;SDS011;52653;50.080;21.992;2023-05-14T02:50:39;43.50;;;32.60;;
65871;SDS011;52653;50.080;21.992;2023-05-14T02:53:33;41.60;;;32.70;;
65871;SDS011;52653;50.080;21.992;2023-05-14T02:56:25;41.50;;;31.70;;
65871;SDS011;52653;50.080;21.992;2023-05-14T02:59:18;41.10;;;31.80;;
65871;SDS011;52653;50.080;21.992;2023-05-14T03:02:11;43.40;;;32.60;;
65871;SDS011;52653;50.080;21.992;2023-05-14T03:05:04;40.40;;;31.20;;
65871;SDS011;52653;50.080;21.992;2023-05-14T03:07:58;41.50;;;32.10;;
65871;SDS011;52653;50.080;21.992;2023-05-14T03:10:50;39.10;;;30.30;;
65871;SDS011;52653;50.080;21.992;2023-05-14T03:13:33;40.20;;;31.60;;
65871;SDS011;52653;50.080;21.992;2023-05-14T03:16:27;40.80;;;32.20;;
65871;SDS011;52653;50.080;21.992;2023-05-14T03:19:14;38.40;;;31.30;;
65871;SDS011;52653;50.080;21.992;2023-05-14T03:22:08;36.20;;;30.60;;
65871;SDS011;52653;50.080;21.992;2023-05-14T03:25:02;38.40;;;29.80;;
65871;SDS011;52653;50.080;21.992;2023-05-14T03:27:56;38.60;;;31.90;;
65871;SDS011;52653;50.080;21.992;2023-05-14T03:30:49;40.30;;;31.70;;
65871;SDS011;52653;50.080;21.992;2023-05-14T03:33:42;43.10;;;32.30;;
65871;SDS011;52653;50.080;21.992;2023-05-14T03:36:33;40.80;;;30.60;;
65871;SDS011;52653;50.080;21.992;2023-05-14T03:39:28;39.60;;;30.70;;
65871;SDS011;52653;50.080;21.992;2023-05-14T03:42:21;34.50;;;29.20;;
65871;SDS011;52653;50.080;21.992;2023-05-14T03:45:15;37.60;;;29.70;;
65871;SDS011;52653;50.080;21.992;2023-05-14T03:48:08;38.20;;;30.30;;
65871;SDS011;52653;50.080;21.992;2023-05-14T03:51:01;36.10;;;29.10;;
65871;SDS011;52653;50.080;21.992;2023-05-14T03:53:54;38.70;;;29.60;;
65871;SDS011;52653;50.080;21.992;2023-05-14T03:56:47;38.50;;;30.20;;
65871;SDS011;52653;50.080;21.992;2023-05-14T03:59:40;36.90;;;28.70;;
65871;SDS011;52653;50.080;21.992;2023-05-14T04:02:31;37.50;;;30.00;;
65871;SDS011;52653;50.080;21.992;2023-05-14T04:05:23;37.50;;;28.10;;
65871;SDS011;52653;50.080;21.992;2023-05-14T04:08:16;36.60;;;28.30;;
65871;SDS011;52653;50.080;21.992;2023-05-14T04:11:09;37.00;;;29.60;;
65871;SDS011;52653;50.080;21.992;2023-05-14T04:14:01;39.50;;;30.40;;
65871;SDS011;52653;50.080;21.992;2023-05-14T04:16:55;37.20;;;29.50;;
65871;SDS011;52653;50.080;21.992;2023-05-14T04:19:49;36.20;;;29.00;;
65871;SDS011;52653;50.080;21.992;2023-05-14T04:22:41;39.10;;;29.10;;
65871;SDS011;52653;50.080;21.992;2023-05-14T04:25:36;33.80;;;29.10;;
65871;SDS011;52653;50.080;21.992;2023-05-14T04:28:29;34.60;;;28.50;;
65871;SDS011;52653;50.080;21.992;2023-05-14T04:31:23;35.50;;;28.10;;
65871;SDS011;52653;50.080;21.992;2023-05-14T04:34:16;34.00;;;28.20;;
65871;SDS011;52653;50.080;21.992;2023-05-14T04:37:01;31.80;;;26.80;;
65871;SDS011;52653;50.080;21.992;2023-05-14T04:39:54;32.40;;;26.70;;
65871;SDS011;52653;50.080;21.992;2023-05-14T04:42:48;31.90;;;26.20;;
65871;SDS011;52653;50.080;21.992;2023-05-14T04:45:41;31.30;;;26.40;;
65871;SDS011;52653;50.080;21.992;2023-05-14T04:48:23;30.20;;;24.70;;
65871;SDS011;52653;50.080;21.992;2023-05-14T04:51:14;27.60;;;23.70;;
65871;SDS011;52653;50.080;21.992;2023-05-14T04:54:00;30.10;;;23.90;;
65871;SDS011;52653;50.080;21.992;2023-05-14T04:56:43;24.40;;;19.10;;
65871;SDS011;52653;50.080;21.992;2023-05-14T04:59:21;22.50;;;18.80;;
65871;SDS011;52653;50.080;21.992;2023-05-14T05:02:15;24.90;;;19.20;;
65871;SDS011;52653;50.080;21.992;2023-05-14T05:05:10;23.80;;;18.80;;
65871;SDS011;52653;50.080;21.992;2023-05-14T05:07:43;21.10;;;17.10;;
65871;SDS011;52653;50.080;21.992;2023-05-14T05:10:26;18.70;;;16.20;;
65871;SDS011;52653;50.080;21.992;2023-05-14T05:13:19;16.80;;;14.90;;
65871;SDS011;52653;50.080;21.992;2023-05-14T05:16:11;17.10;;;14.40;;
65871;SDS011;52653;50.080;21.992;2023-05-14T05:19:04;18.50;;;14.60;;
65871;SDS011;52653;50.080;21.992;2023-05-14T05:21:57;17.30;;;13.60;;
65871;SDS011;52653;50.080;21.992;2023-05-14T05:24:50;17.10;;;14.80;;
65871;SDS011;52653;50.080;21.992;2023-05-14T05:27:26;20.00;;;15.00;;
65871;SDS011;52653;50.080;21.992;2023-05-14T05:30:03;20.50;;;15.30;;
65871;SDS011;52653;50.080;21.992;2023-05-14T05:32:42;17.80;;;14.40;;
65871;SDS011;52653;50.080;21.992;2023-05-14T05:35:18;16.00;;;14.10;;
65871;SDS011;52653;50.080;21.992;2023-05-14T05:38:11;14.10;;;12.40;;
65871;SDS011;52653;50.080;21.992;2023-05-14T05:41:06;16.00;;;11.60;;
65871;SDS011;52653;50.080;21.992;2023-05-14T05:43:59;14.30;;;11.60;;
65871;SDS011;52653;50.080;21.992;2023-05-14T05:46:55;18.50;;;13.20;;
65871;SDS011;52653;50.080;21.992;2023-05-14T05:49:50;15.10;;;12.40;;
65871;SDS011;52653;50.080;21.992;2023-05-14T05:52:43;15.20;;;12.10;;
65871;SDS011;52653;50.080;21.992;2023-05-14T05:55:32;10.80;;;9.30;;
65871;SDS011;52653;50.080;21.992;2023-05-14T05:58:25;9.70;;;7.40;;
65871;SDS011;52653;50.080;21.992;2023-05-14T06:01:18;11.10;;;8.30;;
65871;SDS011;52653;50.080;21.992;2023-05-14T06:04:13;12.00;;;8.60;;
65871;SDS011;52653;50.080;21.992;2023-05-14T06:07:06;10.50;;;8.20;;
65871;SDS011;52653;50.080;21.992;2023-05-14T06:09:59;12.50;;;8.70;;
65871;SDS011;52653;50.080;21.992;2023-05-14T06:12:31;11.90;;;9.10;;
65871;SDS011;52653;50.080;21.992;2023-05-14T06:15:10;12.90;;;9.00;;
65871;SDS011;52653;50.080;21.992;2023-05-14T06:17:54;13.10;;;9.60;;
65871;SDS011;52653;50.080;21.992;2023-05-14T06:20:38;11.40;;;8.90;;
65871;SDS011;52653;50.080;21.992;2023-05-14T06:23:20;12.30;;;9.30;;
65871;SDS011;52653;50.080;21.992;2023-05-14T06:26:13;13.50;;;10.40;;
65871;SDS011;52653;50.080;21.992;2023-05-14T06:29:05;15.00;;;9.80;;
65871;SDS011;52653;50.080;21.992;2023-05-14T06:31:47;13.90;;;10.20;;
65871;SDS011;52653;50.080;21.992;2023-05-14T06:34:40;11.90;;;9.30;;
65871;SDS011;52653;50.080;21.992;2023-05-14T06:37:33;9.80;;;6.90;;
65871;SDS011;52653;50.080;21.992;2023-05-14T06:40:11;10.40;;;7.00;;
65871;SDS011;52653;50.080;21.992;2023-05-14T06:43:06;7.40;;;4.90;;
65871;SDS011;52653;50.080;21.992;2023-05-14T06:45:59;6.90;;;4.40;;
65871;SDS011;52653;50.080;21.992;2023-05-14T06:48:33;5.90;;;4.20;;
65871;SDS011;52653;50.080;21.992;2023-05-14T06:51:16;7.10;;;4.60;;
65871;SDS011;52653;50.080;21.992;2023-05-14T06:54:10;7.80;;;4.70;;
65871;SDS011;52653;50.080;21.992;2023-05-14T06:57:03;7.20;;;4.60;;
65871;SDS011;52653;50.080;21.992;2023-05-14T06:59:47;7.10;;;4.80;;
65871;SDS011;52653;50.080;21.992;2023-05-14T07:02:34;7.00;;;4.90;;
65871;SDS011;52653;50.080;21.992;2023-05-14T07:05:16;10.20;;;5.90;;
65871;SDS011;52653;50.080;21.992;2023-05-14T07:08:09;7.60;;;5.60;;
65871;SDS011;52653;50.080;21.992;2023-05-14T07:10:55;7.70;;;5.50;;
65871;SDS011;52653;50.080;21.992;2023-05-14T07:13:28;8.20;;;5.40;;
65871;SDS011;52653;50.080;21.992;2023-05-14T07:16:06;7.50;;;5.50;;
65871;SDS011;52653;50.080;21.992;2023-05-14T07:18:59;7.60;;;5.80;;
65871;SDS011;52653;50.080;21.992;2023-05-14T07:21:51;8.30;;;5.50;;
65871;SDS011;52653;50.080;21.992;2023-05-14T07:24:44;8.80;;;5.80;;
65871;SDS011;52653;50.080;21.992;2023-05-14T07:27:30;8.50;;;5.10;;
65871;SDS011;52653;50.080;21.992;2023-05-14T07:30:24;7.80;;;5.60;;
65871;SDS011;52653;50.080;21.992;2023-05-14T07:33:17;9.20;;;6.40;;
65871;SDS011;52653;50.080;21.992;2023-05-14T07:35:51;9.40;;;6.60;;
65871;SDS011;52653;50.080;21.992;2023-05-14T07:38:44;11.10;;;7.80;;
65871;SDS011;52653;50.080;21.992;2023-05-14T07:41:39;9.40;;;6.50;;
65871;SDS011;52653;50.080;21.992;2023-05-14T07:44:33;11.00;;;7.10;;
65871;SDS011;52653;50.080;21.992;2023-05-14T07:47:26;8.60;;;5.80;;
65871;SDS011;52653;50.080;21.992;2023-05-14T07:50:10;9.60;;;6.20;;
65871;SDS011;52653;50.080;21.992;2023-05-14T07:53:11;9.40;;;6.30;;
65871;SDS011;52653;50.080;21.992;2023-05-14T07:56:04;7.60;;;5.50;;
65871;SDS011;52653;50.080;21.992;2023-05-14T07:58:42;7.90;;;5.60;;
65871;SDS011;52653;50.080;21.992;2023-05-14T08:01:15;9.80;;;5.60;;
65871;SDS011;52653;50.080;21.992;2023-05-14T08:03:58;5.70;;;4.40;;
65871;SDS011;52653;50.080;21.992;2023-05-14T08:06:50;7.20;;;4.00;;
65871;SDS011;52653;50.080;21.992;2023-05-14T08:09:36;7.50;;;4.70;;
65871;SDS011;52653;50.080;21.992;2023-05-14T08:12:29;8.70;;;4.00;;
65871;SDS011;52653;50.080;21.992;2023-05-14T08:15:22;7.40;;;4.00;;
65871;SDS011;52653;50.080;21.992;2023-05-14T08:18:16;6.60;;;4.40;;
65871;SDS011;52653;50.080;21.992;2023-05-14T08:21:09;7.70;;;4.60;;
65871;SDS011;52653;50.080;21.992;2023-05-14T08:24:01;7.40;;;4.30;;
65871;SDS011;52653;50.080;21.992;2023-05-14T08:26:57;6.80;;;4.30;;
65871;SDS011;52653;50.080;21.992;2023-05-14T08:29:38;6.00;;;4.10;;
65871;SDS011;52653;50.080;21.992;2023-05-14T08:32:24;9.80;;;4.60;;
65871;SDS011;52653;50.080;21.992;2023-05-14T08:35:10;5.90;;;4.00;;
65871;SDS011;52653;50.080;21.992;2023-05-14T08:37:54;6.30;;;4.20;;
65871;SDS011;52653;50.080;21.992;2023-05-14T08:40:41;5.90;;;3.60;;
65871;SDS011;52653;50.080;21.992;2023-05-14T08:43:19;5.40;;;3.60;;
65871;SDS011;52653;50.080;21.992;2023-05-14T08:46:10;6.40;;;3.80;;
65871;SDS011;52653;50.080;21.992;2023-05-14T08:49:09;7.00;;;3.90;;
65871;SDS011;52653;50.080;21.992;2023-05-14T08:52:20;7.30;;;3.50;;
65871;SDS011;52653;50.080;21.992;2023-05-14T08:55:15;6.50;;;3.90;;
65871;SDS011;52653;50.080;21.992;2023-05-14T08:58:09;5.00;;;3.30;;
65871;SDS011;52653;50.080;21.992;2023-05-14T09:00:44;5.60;;;3.50;;
65871;SDS011;52653;50.080;21.992;2023-05-14T09:03:17;6.20;;;4.00;;
65871;SDS011;52653;50.080;21.992;2023-05-14T09:06:03;5.50;;;3.40;;
65871;SDS011;52653;50.080;21.992;2023-05-14T09:08:37;5.50;;;3.40;;
65871;SDS011;52653;50.080;21.992;2023-05-14T09:11:31;6.90;;;3.70;;
65871;SDS011;52653;50.080;21.992;2023-05-14T09:14:06;6.30;;;3.40;;
65871;SDS011;52653;50.080;21.992;2023-05-14T09:17:00;5.70;;;3.60;;
65871;SDS011;52653;50.080;21.992;2023-05-14T09:19:33;6.30;;;3.50;;
65871;SDS011;52653;50.080;21.992;2023-05-14T09:22:28;5.60;;;3.50;;
65871;SDS011;52653;50.080;21.992;2023-05-14T09:25:25;5.50;;;3.20;;
65871;SDS011;52653;50.080;21.992;2023-05-14T09:28:20;4.50;;;2.70;;
65871;SDS011;52653;50.080;21.992;2023-05-14T09:31:16;6.20;;;3.10;;
65871;SDS011;52653;50.080;21.992;2023-05-14T09:34:09;6.30;;;3.30;;
65871;SDS011;52653;50.080;21.992;2023-05-14T09:37:16;6.30;;;3.10;;
65871;SDS011;52653;50.080;21.992;2023-05-14T09:40:09;4.90;;;2.90;;
65871;SDS011;52653;50.080;21.992;2023-05-14T09:43:04;5.90;;;3.10;;
65871;SDS011;52653;50.080;21.992;2023-05-14T09:45:58;6.80;;;3.00;;
65871;SDS011;52653;50.080;21.992;2023-05-14T09:48:51;5.50;;;3.20;;
65871;SDS011;52653;50.080;21.992;2023-05-14T09:51:45;6.50;;;3.30;;
65871;SDS011;52653;50.080;21.992;2023-05-14T09:54:40;4.10;;;2.70;;
65871;SDS011;52653;50.080;21.992;2023-05-14T09:57:28;5.10;;;3.00;;
65871;SDS011;52653;50.080;21.992;2023-05-14T10:00:22;4.10;;;2.70;;
65871;SDS011;52653;50.080;21.992;2023-05-14T10:03:07;5.20;;;2.70;;
65871;SDS011;52653;50.080;21.992;2023-05-14T10:05:44;5.20;;;2.80;;
65871;SDS011;52653;50.080;21.992;2023-05-14T10:08:23;4.50;;;2.70;;
65871;SDS011;52653;50.080;21.992;2023-05-14T10:10:58;6.90;;;3.20;;
65871;SDS011;52653;50.080;21.992;2023-05-14T10:13:45;4.20;;;2.40;;
65871;SDS011;52653;50.080;21.992;2023-05-14T10:16:46;3.80;;;2.20;;
65871;SDS011;52653;50.080;21.992;2023-05-14T10:19:22;3.90;;;2.70;;
65871;SDS011;52653;50.080;21.992;2023-05-14T10:21:58;4.20;;;2.50;;
65871;SDS011;52653;50.080;21.992;2023-05-14T10:24:34;5.20;;;2.70;;
65871;SDS011;52653;50.080;21.992;2023-05-14T10:27:28;6.00;;;2.80;;
65871;SDS011;52653;50.080;21.992;2023-05-14T10:30:09;4.00;;;2.20;;
65871;SDS011;52653;50.080;21.992;2023-05-14T10:32:42;4.50;;;2.50;;
65871;SDS011;52653;50.080;21.992;2023-05-14T10:35:51;6.10;;;2.50;;
65871;SDS011;52653;50.080;21.992;2023-05-14T10:38:48;5.40;;;2.60;;
65871;SDS011;52653;50.080;21.992;2023-05-14T10:41:47;3.80;;;2.10;;
65871;SDS011;52653;50.080;21.992;2023-05-14T10:44:41;3.50;;;2.30;;
65871;SDS011;52653;50.080;21.992;2023-05-14T10:47:19;3.80;;;2.30;;
65871;SDS011;52653;50.080;21.992;2023-05-14T10:49:52;4.80;;;2.40;;
65871;SDS011;52653;50.080;21.992;2023-05-14T10:52:29;4.20;;;2.00;;
65871;SDS011;52653;50.080;21.992;2023-05-14T10:55:23;4.00;;;2.00;;
65871;SDS011;52653;50.080;21.992;2023-05-14T10:58:17;3.50;;;2.00;;
65871;SDS011;52653;50.080;21.992;2023-05-14T11:01:11;5.30;;;2.60;;
65871;SDS011;52653;50.080;21.992;2023-05-14T11:03:57;3.80;;;2.20;;
65871;SDS011;52653;50.080;21.992;2023-05-14T11:06:52;4.00;;;2.10;;
65871;SDS011;52653;50.080;21.992;2023-05-14T11:09:28;5.80;;;2.10;;
65871;SDS011;52653;50.080;21.992;2023-05-14T11:12:21;4.30;;;2.10;;
65871;SDS011;52653;50.080;21.992;2023-05-14T11:15:10;3.60;;;2.20;;
65871;SDS011;52653;50.080;21.992;2023-05-14T11:18:05;4.10;;;2.20;;
65871;SDS011;52653;50.080;21.992;2023-05-14T11:20:38;4.50;;;1.90;;
65871;SDS011;52653;50.080;21.992;2023-05-14T11:23:19;5.40;;;2.10;;
65871;SDS011;52653;50.080;21.992;2023-05-14T11:26:15;3.30;;;1.80;;
65871;SDS011;52653;50.080;21.992;2023-05-14T11:28:50;3.90;;;1.90;;
65871;SDS011;52653;50.080;21.992;2023-05-14T11:31:43;4.50;;;1.90;;
65871;SDS011;52653;50.080;21.992;2023-05-14T11:34:39;3.50;;;2.00;;
65871;SDS011;52653;50.080;21.992;2023-05-14T11:37:35;3.40;;;2.00;;
65871;SDS011;52653;50.080;21.992;2023-05-14T11:40:28;3.90;;;1.90;;
65871;SDS011;52653;50.080;21.992;2023-05-14T11:43:22;3.00;;;1.80;;
65871;SDS011;52653;50.080;21.992;2023-05-14T11:46:17;3.10;;;1.60;;
65871;SDS011;52653;50.080;21.992;2023-05-14T11:49:10;4.40;;;1.70;;
65871;SDS011;52653;50.080;21.992;2023-05-14T11:51:57;2.80;;;1.70;;
65871;SDS011;52653;50.080;21.992;2023-05-14T11:54:52;2.60;;;1.40;;
65871;SDS011;52653;50.080;21.992;2023-05-14T11:57:45;2.90;;;1.70;;
65871;SDS011;52653;50.080;21.992;2023-05-14T12:00:38;4.50;;;1.80;;
65871;SDS011;52653;50.080;21.992;2023-05-14T12:03:31;9.40;;;1.80;;
65871;SDS011;52653;50.080;21.992;2023-05-14T12:06:29;3.40;;;1.60;;
65871;SDS011;52653;50.080;21.992;2023-05-14T12:09:22;2.00;;;1.30;;
65871;SDS011;52653;50.080;21.992;2023-05-14T12:12:16;3.60;;;2.00;;
65871;SDS011;52653;50.080;21.992;2023-05-14T12:15:13;5.10;;;1.60;;
65871;SDS011;52653;50.080;21.992;2023-05-14T12:18:08;2.60;;;1.50;;
65871;SDS011;52653;50.080;21.992;2023-05-14T12:21:13;4.00;;;1.50;;
65871;SDS011;52653;50.080;21.992;2023-05-14T12:23:47;5.20;;;2.50;;
65871;SDS011;52653;50.080;21.992;2023-05-14T12:26:49;2.80;;;1.40;;
65871;SDS011;52653;50.080;21.992;2023-05-14T12:29:37;2.80;;;1.20;;
65871;SDS011;52653;50.080;21.992;2023-05-14T12:32:13;2.60;;;1.60;;
65871;SDS011;52653;50.080;21.992;2023-05-14T12:34:48;2.60;;;1.40;;
65871;SDS011;52653;50.080;21.992;2023-05-14T12:37:41;2.10;;;1.30;;
65871;SDS011;52653;50.080;21.992;2023-05-14T12:40:34;3.00;;;1.80;;
65871;SDS011;52653;50.080;21.992;2023-05-14T12:43:26;4.20;;;1.50;;
65871;SDS011;52653;50.080;21.992;2023-05-14T12:46:20;3.40;;;1.50;;
65871;SDS011;52653;50.080;21.992;2023-05-14T12:49:03;2.80;;;1.80;;
65871;SDS011;52653;50.080;21.992;2023-05-14T12:51:56;3.40;;;1.90;;
65871;SDS011;52653;50.080;21.992;2023-05-14T12:55:09;3.90;;;1.90;;
65871;SDS011;52653;50.080;21.992;2023-05-14T12:57:42;3.60;;;1.80;;
65871;SDS011;52653;50.080;21.992;2023-05-14T13:00:19;4.00;;;1.70;;
65871;SDS011;52653;50.080;21.992;2023-05-14T13:03:03;3.10;;;1.90;;
65871;SDS011;52653;50.080;21.992;2023-05-14T13:05:56;4.80;;;2.20;;
65871;SDS011;52653;50.080;21.992;2023-05-14T13:08:49;4.60;;;2.10;;
65871;SDS011;52653;50.080;21.992;2023-05-14T13:11:21;4.20;;;2.50;;
65871;SDS011;52653;50.080;21.992;2023-05-14T13:14:09;5.10;;;2.40;;
65871;SDS011;52653;50.080;21.992;2023-05-14T13:16:42;4.50;;;2.40;;
65871;SDS011;52653;50.080;21.992;2023-05-14T13:19:26;3.10;;;2.00;;
65871;SDS011;52653;50.080;21.992;2023-05-14T13:21:59;4.40;;;2.20;;
65871;SDS011;52653;50.080;21.992;2023-05-14T13:24:37;6.60;;;2.60;;
65871;SDS011;52653;50.080;21.992;2023-05-14T13:27:30;5.60;;;2.80;;
65871;SDS011;52653;50.080;21.992;2023-05-14T13:30:24;5.70;;;2.10;;
65871;SDS011;52653;50.080;21.992;2023-05-14T13:33:07;5.60;;;2.40;;
65871;SDS011;52653;50.080;21.992;2023-05-14T13:35:45;4.30;;;2.10;;
65871;SDS011;52653;50.080;21.992;2023-05-14T13:38:40;6.70;;;2.30;;
65871;SDS011;52653;50.080;21.992;2023-05-14T13:41:25;7.10;;;2.40;;
65871;SDS011;52653;50.080;21.992;2023-05-14T13:44:00;5.60;;;3.00;;
65871;SDS011;52653;50.080;21.992;2023-05-14T13:46:40;5.90;;;2.80;;
65871;SDS011;52653;50.080;21.992;2023-05-14T13:49:32;6.30;;;2.60;;
65871;SDS011;52653;50.080;21.992;2023-05-14T13:52:26;4.90;;;2.60;;
65871;SDS011;52653;50.080;21.992;2023-05-14T13:55:09;7.10;;;2.60;;
65871;SDS011;52653;50.080;21.992;2023-05-14T13:57:44;5.80;;;3.00;;
65871;SDS011;52653;50.080;21.992;2023-05-14T14:00:37;5.60;;;2.90;;
65871;SDS011;52653;50.080;21.992;2023-05-14T14:03:31;5.40;;;2.70;;
65871;SDS011;52653;50.080;21.992;2023-05-14T14:06:17;5.80;;;2.70;;
65871;SDS011;52653;50.080;21.992;2023-05-14T14:09:10;5.20;;;2.40;;
65871;SDS011;52653;50.080;21.992;2023-05-14T14:12:03;5.80;;;2.40;;
65871;SDS011;52653;50.080;21.992;2023-05-14T14:14:48;4.60;;;2.20;;
65871;SDS011;52653;50.080;21.992;2023-05-14T14:17:42;5.20;;;2.40;;
65871;SDS011;52653;50.080;21.992;2023-05-14T14:20:35;6.60;;;2.60;;
65871;SDS011;52653;50.080;21.992;2023-05-14T14:23:17;5.30;;;2.40;;
65871;SDS011;52653;50.080;21.992;2023-05-14T14:25:50;5.20;;;2.10;;
65871;SDS011;52653;50.080;21.992;2023-05-14T14:28:37;7.20;;;2.30;;
65871;SDS011;52653;50.080;21.992;2023-05-14T14:31:30;4.30;;;2.00;;
65871;SDS011;52653;50.080;21.992;2023-05-14T14:34:24;4.30;;;2.00;;
65871;SDS011;52653;50.080;21.992;2023-05-14T14:37:17;6.20;;;2.30;;
65871;SDS011;52653;50.080;21.992;2023-05-14T14:40:12;5.50;;;2.00;;
65871;SDS011;52653;50.080;21.992;2023-05-14T14:43:05;3.90;;;1.70;;
65871;SDS011;52653;50.080;21.992;2023-05-14T14:45:58;3.90;;;1.80;;
65871;SDS011;52653;50.080;21.992;2023-05-14T14:48:45;6.20;;;2.10;;
65871;SDS011;52653;50.080;21.992;2023-05-14T14:51:38;4.30;;;1.90;;
65871;SDS011;52653;50.080;21.992;2023-05-14T14:54:14;3.50;;;2.00;;
65871;SDS011;52653;50.080;21.992;2023-05-14T14:57:08;5.60;;;2.20;;
65871;SDS011;52653;50.080;21.992;2023-05-14T15:00:01;4.50;;;2.20;;
65871;SDS011;52653;50.080;21.992;2023-05-14T15:02:55;5.20;;;2.20;;
65871;SDS011;52653;50.080;21.992;2023-05-14T15:05:50;6.20;;;2.50;;
65871;SDS011;52653;50.080;21.992;2023-05-14T15:08:43;3.90;;;2.10;;
65871;SDS011;52653;50.080;21.992;2023-05-14T15:11:25;3.80;;;2.10;;
65871;SDS011;52653;50.080;21.992;2023-05-14T15:14:18;5.50;;;2.30;;
65871;SDS011;52653;50.080;21.992;2023-05-14T15:16:52;11.70;;;2.60;;
65871;SDS011;52653;50.080;21.992;2023-05-14T15:19:29;4.50;;;2.10;;
65871;SDS011;52653;50.080;21.992;2023-05-14T15:22:23;5.60;;;2.10;;
65871;SDS011;52653;50.080;21.992;2023-05-14T15:25:07;4.60;;;1.90;;
65871;SDS011;52653;50.080;21.992;2023-05-14T15:27:54;5.50;;;2.50;;
65871;SDS011;52653;50.080;21.992;2023-05-14T15:30:37;4.60;;;2.30;;
65871;SDS011;52653;50.080;21.992;2023-05-14T15:33:09;4.70;;;2.10;;
65871;SDS011;52653;50.080;21.992;2023-05-14T15:35:57;6.80;;;2.70;;
65871;SDS011;52653;50.080;21.992;2023-05-14T15:38:34;4.40;;;2.20;;
65871;SDS011;52653;50.080;21.992;2023-05-14T15:41:19;6.30;;;2.50;;
65871;SDS011;52653;50.080;21.992;2023-05-14T15:43:57;5.30;;;2.10;;
65871;SDS011;52653;50.080;21.992;2023-05-14T15:46:40;5.00;;;2.40;;
65871;SDS011;52653;50.080;21.992;2023-05-14T15:49:27;5.50;;;2.30;;
65871;SDS011;52653;50.080;21.992;2023-05-14T15:52:21;6.70;;;2.30;;
65871;SDS011;52653;50.080;21.992;2023-05-14T15:54:57;6.50;;;2.30;;
65871;SDS011;52653;50.080;21.992;2023-05-14T15:57:50;4.70;;;2.00;;
65871;SDS011;52653;50.080;21.992;2023-05-14T16:00:43;4.60;;;2.00;;
65871;SDS011;52653;50.080;21.992;2023-05-14T16:03:28;6.10;;;2.00;;
65871;SDS011;52653;50.080;21.992;2023-05-14T16:06:21;4.10;;;2.20;;
65871;SDS011;52653;50.080;21.992;2023-05-14T16:09:15;6.50;;;2.30;;
65871;SDS011;52653;50.080;21.992;2023-05-14T16:12:08;5.80;;;2.20;;
65871;SDS011;52653;50.080;21.992;2023-05-14T16:15:01;6.60;;;2.60;;
65871;SDS011;52653;50.080;21.992;2023-05-14T16:17:54;4.50;;;2.20;;
65871;SDS011;52653;50.080;21.992;2023-05-14T16:20:47;4.70;;;2.20;;
65871;SDS011;52653;50.080;21.992;2023-05-14T16:23:41;7.00;;;2.00;;